createdAt,value
2019-02-08T00:00:31.420Z,2.80
2019-02-08T00:03:02.237Z,2.80
2019-02-08T00:05:33.401Z,2.90
2019-02-08T00:08:04.444Z,2.90
2019-02-08T00:10:36.261Z,2.90
2019-02-08T00:13:07.452Z,2.90
2019-02-08T00:15:38.471Z,2.90
2019-02-08T00:18:09.412Z,2.90
2019-02-08T00:20:40.373Z,2.90
2019-02-08T00:23:11.296Z,3.00
2019-02-08T00:25:42.541Z,3.00
2019-02-08T00:28:13.603Z,3.00
2019-02-08T00:30:47.372Z,2.90
2019-02-08T00:33:19.962Z,2.90
2019-02-08T00:35:50.890Z,2.90
2019-02-08T00:38:21.962Z,2.90
2019-02-08T00:40:53.021Z,2.90
2019-02-08T00:43:24.356Z,3.00
2019-02-08T00:45:55.291Z,2.90
2019-02-08T00:48:26.096Z,3.00
2019-02-08T00:50:57.101Z,2.90
2019-02-08T00:53:33.407Z,2.90
2019-02-08T00:56:01.181Z,2.90
2019-02-08T00:58:32.313Z,3.00
2019-02-08T01:01:03.209Z,2.90
2019-02-08T01:03:34.428Z,2.90
2019-02-08T01:06:06.441Z,2.90
2019-02-08T01:08:37.327Z,2.90
2019-02-08T01:11:08.435Z,3.00
2019-02-08T01:13:40.192Z,2.90
2019-02-08T01:16:11.430Z,2.90
2019-02-08T01:18:42.405Z,2.90
2019-02-08T01:21:13.250Z,2.90
2019-02-08T01:23:44.181Z,2.90
2019-02-08T01:26:15.165Z,2.90
2019-02-08T01:28:46.068Z,2.90
2019-02-08T01:31:17.141Z,2.90
2019-02-08T01:33:48.153Z,2.90
2019-02-08T01:36:19.039Z,2.90
2019-02-08T01:38:49.794Z,2.80
2019-02-08T01:41:21.747Z,2.80
2019-02-08T01:43:52.584Z,2.80
2019-02-08T01:46:23.512Z,2.90
2019-02-08T01:48:54.400Z,2.90
2019-02-08T01:51:25.546Z,2.90
2019-02-08T01:53:56.321Z,2.90
2019-02-08T01:56:27.321Z,3.00
2019-02-08T01:58:58.216Z,3.00
2019-02-08T02:01:29.176Z,3.00
2019-02-08T02:04:00.074Z,3.00
2019-02-08T02:06:30.978Z,3.00
2019-02-08T02:09:01.716Z,3.00
2019-02-08T02:11:33.672Z,2.90
2019-02-08T02:14:04.713Z,3.00
2019-02-08T02:16:35.574Z,3.00
2019-02-08T02:19:06.898Z,3.00
2019-02-08T02:21:37.940Z,3.00
2019-02-08T02:24:09.040Z,3.00
2019-02-08T02:26:40.051Z,3.10
2019-02-08T02:29:11.170Z,3.00
2019-02-08T02:31:42.309Z,3.10
2019-02-08T02:34:12.977Z,3.00
2019-02-08T02:36:43.937Z,3.00
2019-02-08T02:39:14.915Z,3.00
2019-02-08T02:41:45.956Z,3.00
2019-02-08T02:44:17.022Z,2.90
2019-02-08T02:46:48.201Z,2.90
2019-02-08T02:49:19.494Z,2.90
2019-02-08T02:51:50.685Z,2.90
2019-02-08T02:54:21.582Z,2.90
2019-02-08T02:56:52.714Z,2.90
2019-02-08T02:59:23.913Z,2.80
2019-02-08T03:01:54.748Z,2.80
2019-02-08T03:04:25.943Z,2.80
2019-02-08T03:06:57.197Z,2.80
2019-02-08T03:09:28.652Z,2.80
2019-02-08T03:11:59.657Z,2.80
2019-02-08T03:14:31.088Z,2.80
2019-02-08T03:17:02.185Z,2.80
2019-02-08T03:19:33.291Z,2.80
2019-02-08T03:22:04.198Z,2.70
2019-02-08T03:24:35.277Z,2.80
2019-02-08T03:27:06.614Z,2.70
2019-02-08T03:29:37.803Z,2.70
2019-02-08T03:32:08.769Z,2.80
2019-02-08T03:34:39.831Z,2.80
2019-02-08T03:37:11.019Z,2.70
2019-02-08T03:39:42.005Z,2.60
2019-02-08T03:42:13.179Z,2.70
2019-02-08T03:44:45.133Z,2.70
2019-02-08T03:47:16.192Z,2.70
2019-02-08T03:49:46.919Z,2.70
2019-02-08T03:52:17.986Z,2.70
2019-02-08T03:54:50.142Z,2.70
2019-02-08T03:57:21.171Z,2.70
2019-02-08T03:59:52.154Z,2.70
2019-02-08T04:02:23.448Z,2.60
2019-02-08T04:04:54.637Z,2.50
2019-02-08T04:07:25.372Z,2.50
2019-02-08T04:09:56.487Z,2.40
2019-02-08T04:12:27.168Z,2.50
2019-02-08T04:14:58.160Z,2.60
2019-02-08T04:17:29.416Z,2.60
2019-02-08T04:20:00.441Z,2.60
2019-02-08T04:22:31.690Z,2.50
2019-02-08T04:25:03.680Z,2.50
2019-02-08T04:27:34.695Z,2.50
2019-02-08T04:30:08.633Z,2.60
2019-02-08T04:32:39.883Z,2.50
2019-02-08T04:35:12.388Z,2.60
2019-02-08T04:37:43.908Z,2.60
2019-02-08T04:40:17.850Z,2.60
2019-02-08T04:42:49.494Z,2.60
2019-02-08T04:45:24.136Z,2.50
2019-02-08T04:47:55.809Z,2.50
2019-02-08T04:50:26.853Z,2.50
2019-02-08T04:52:58.251Z,2.50
2019-02-08T04:55:29.491Z,2.50
2019-02-08T04:58:00.490Z,2.40
2019-02-08T05:00:33.919Z,2.40
2019-02-08T05:03:06.305Z,2.50
2019-02-08T05:05:37.505Z,2.50
2019-02-08T05:08:08.490Z,2.60
2019-02-08T05:10:39.412Z,2.50
2019-02-08T05:13:11.888Z,2.40
2019-02-08T05:15:42.828Z,2.40
2019-02-08T05:18:16.037Z,2.50
2019-02-08T05:20:47.183Z,2.50
2019-02-08T05:23:18.128Z,2.60
2019-02-08T05:25:49.284Z,2.50
2019-02-08T05:28:20.471Z,2.40
2019-02-08T05:30:51.456Z,2.40
2019-02-08T05:33:22.421Z,2.40
2019-02-08T05:35:53.004Z,2.40
2019-02-08T05:38:23.833Z,2.40
2019-02-08T05:40:54.612Z,2.50
2019-02-08T05:43:25.285Z,2.50
2019-02-08T05:45:56.757Z,2.40
2019-02-08T05:48:27.568Z,2.50
2019-02-08T05:50:58.670Z,2.50
2019-02-08T05:53:29.870Z,2.50
2019-02-08T05:56:00.353Z,2.40
2019-02-08T05:58:31.012Z,2.40
2019-02-08T06:01:01.714Z,2.50
2019-02-08T06:03:32.659Z,2.40
2019-02-08T06:06:03.679Z,2.50
2019-02-08T06:08:34.636Z,2.50
2019-02-08T06:11:05.257Z,2.50
2019-02-08T06:13:37.016Z,2.50
2019-02-08T06:16:08.058Z,2.50
2019-02-08T06:18:38.563Z,2.60
2019-02-08T06:21:09.116Z,2.50
2019-02-08T06:23:39.761Z,2.50
2019-02-08T06:26:10.809Z,2.50
2019-02-08T06:28:41.756Z,2.50
2019-02-08T06:31:12.789Z,2.60
2019-02-08T06:33:43.626Z,2.60
2019-02-08T06:36:14.554Z,2.60
2019-02-08T06:38:45.413Z,2.60
2019-02-08T06:41:16.445Z,2.60
2019-02-08T06:43:47.020Z,2.60
2019-02-08T06:46:17.535Z,2.60
2019-02-08T06:48:48.666Z,2.70
2019-02-08T06:51:19.596Z,2.70
2019-02-08T06:53:50.757Z,2.60
2019-02-08T06:56:39.385Z,2.80
2019-02-08T06:59:38.040Z,2.80
2019-02-08T07:02:23.673Z,2.70
2019-02-08T07:05:16.419Z,2.70
2019-02-08T07:07:56.813Z,2.70
2019-02-08T07:10:42.791Z,2.70
2019-02-08T07:13:25.515Z,2.80
2019-02-08T07:16:12.423Z,2.80
2019-02-08T07:18:57.063Z,2.80
2019-02-08T07:21:42.267Z,2.80
2019-02-08T07:24:44.190Z,2.80
2019-02-08T07:27:29.649Z,2.80
2019-02-08T07:30:08.620Z,2.80
2019-02-08T07:32:48.169Z,2.80
2019-02-08T07:35:37.092Z,2.80
2019-02-08T07:38:23.182Z,2.80
2019-02-08T07:41:16.752Z,2.90
2019-02-08T07:44:05.627Z,2.90
2019-02-08T07:46:58.901Z,2.80
2019-02-08T07:49:48.027Z,2.80
2019-02-08T07:52:36.373Z,2.90
2019-02-08T07:55:28.493Z,3.00
2019-02-08T07:58:04.831Z,3.10
2019-02-08T08:01:00.767Z,3.20
2019-02-08T08:04:01.368Z,3.20
2019-02-08T08:06:53.597Z,3.30
2019-02-08T08:09:43.289Z,3.40
2019-02-08T08:12:39.391Z,3.40
2019-02-08T08:15:33.073Z,3.50
2019-02-08T08:18:21.169Z,3.70
2019-02-08T08:21:17.188Z,3.70
2019-02-08T08:23:55.213Z,3.80
2019-02-08T08:26:57.932Z,3.80
2019-02-08T08:29:46.427Z,3.70
2019-02-08T08:32:31.219Z,3.70
2019-02-08T08:35:27.534Z,3.50
2019-02-08T08:38:23.096Z,3.50
2019-02-08T08:41:46.962Z,3.50
2019-02-08T08:44:55.212Z,3.50
2019-02-08T08:48:18.525Z,3.50
2019-02-08T08:51:27.417Z,3.40
2019-02-08T08:54:50.340Z,3.40
2019-02-08T08:57:59.963Z,3.50
2019-02-08T09:01:17.596Z,3.60
2019-02-08T09:04:29.236Z,3.60
2019-02-08T09:07:38.824Z,3.60
2019-02-08T09:10:48.482Z,3.70
2019-02-08T09:14:05.426Z,3.80
2019-02-08T09:17:12.812Z,4.00
2019-02-08T09:20:21.346Z,4.20
2019-02-08T09:23:19.548Z,4.30
2019-02-08T09:26:20.228Z,4.50
2019-02-08T09:29:39.801Z,4.60
2019-02-08T09:32:37.379Z,4.60
2019-02-08T09:35:32.323Z,4.40
2019-02-08T09:38:57.352Z,4.50
2019-02-08T09:41:51.811Z,4.50
2019-02-08T09:45:09.050Z,4.50
2019-02-08T09:48:29.404Z,4.40
2019-02-08T09:51:31.695Z,4.20
2019-02-08T09:54:46.559Z,4.30
2019-02-08T09:57:45.829Z,4.40
2019-02-08T10:00:45.064Z,4.50
2019-02-08T10:03:55.639Z,4.60
2019-02-08T10:06:53.124Z,4.70
2019-02-08T10:09:59.230Z,4.70
2019-02-08T10:13:09.120Z,4.80
2019-02-08T10:16:17.575Z,4.90
2019-02-08T10:19:20.523Z,5.00
2019-02-08T10:22:34.826Z,5.00
2019-02-08T10:25:32.744Z,5.00
2019-02-08T10:28:47.377Z,5.20
2019-02-08T10:32:09.861Z,5.10
2019-02-08T10:35:30.659Z,5.30
2019-02-08T10:38:35.992Z,5.40
2019-02-08T10:42:02.449Z,5.50
2019-02-08T10:45:02.674Z,5.40
2019-02-08T10:48:08.405Z,5.50
2019-02-08T10:51:05.519Z,5.40
2019-02-08T10:54:32.423Z,5.40
2019-02-08T10:57:42.619Z,5.30
2019-02-08T11:00:59.945Z,5.30
2019-02-08T11:04:21.200Z,5.20
2019-02-08T11:07:27.936Z,5.10
2019-02-08T11:10:51.922Z,5.10
2019-02-08T11:14:09.258Z,5.10
2019-02-08T11:17:16.493Z,5.20
2019-02-08T11:19:55.248Z,5.20
2019-02-08T11:22:26.354Z,5.30
2019-02-08T11:24:56.849Z,5.40
2019-02-08T11:27:27.440Z,5.30
2019-02-08T11:29:58.079Z,5.30
2019-02-08T11:32:42.576Z,5.20
2019-02-08T11:35:00.872Z,5.20
2019-02-08T11:37:31.520Z,5.20
2019-02-08T11:40:02.040Z,5.20
2019-02-08T11:42:33.800Z,5.10
2019-02-08T11:45:05.383Z,5.20
2019-02-08T11:47:35.986Z,5.20
2019-02-08T11:50:08.582Z,5.20
2019-02-08T11:52:39.052Z,5.20
2019-02-08T11:55:10.048Z,5.20
2019-02-08T11:57:40.639Z,5.20
2019-02-08T12:00:16.716Z,5.20
2019-02-08T12:02:47.260Z,5.30
2019-02-08T12:05:17.764Z,5.30
2019-02-08T12:07:48.378Z,5.20
2019-02-08T12:10:19.083Z,5.20
2019-02-08T12:12:49.576Z,5.20
2019-02-08T12:15:20.868Z,5.20
2019-02-08T12:17:51.564Z,5.10
2019-02-08T12:20:22.092Z,5.10
2019-02-08T12:22:52.732Z,5.10
2019-02-08T12:25:23.256Z,5.00
2019-02-08T12:27:54.099Z,5.10
2019-02-08T12:30:29.152Z,5.10
2019-02-08T12:32:59.777Z,5.10
2019-02-08T12:35:30.296Z,5.00
2019-02-08T12:38:00.859Z,4.90
2019-02-08T12:40:31.397Z,5.00
2019-02-08T12:43:01.932Z,5.00
2019-02-08T12:45:32.568Z,5.10
2019-02-08T12:48:03.260Z,5.00
2019-02-08T12:50:33.796Z,5.00
2019-02-08T12:53:04.399Z,5.00
2019-02-08T12:55:34.977Z,4.90
2019-02-08T12:58:05.597Z,4.90
2019-02-08T13:00:36.216Z,4.80
2019-02-08T13:03:07.364Z,4.80
2019-02-08T13:05:39.348Z,4.80
2019-02-08T13:08:09.860Z,4.70
2019-02-08T13:10:40.405Z,4.80
2019-02-08T13:13:11.021Z,4.80
2019-02-08T13:15:41.579Z,4.80
2019-02-08T13:18:12.085Z,4.80
2019-02-08T13:20:42.933Z,4.80
2019-02-08T13:23:13.649Z,4.80
2019-02-08T13:25:44.286Z,4.70
2019-02-08T13:28:14.931Z,4.70
2019-02-08T13:30:45.448Z,4.70
2019-02-08T13:33:16.586Z,4.60
2019-02-08T13:35:47.159Z,4.60
2019-02-08T13:38:17.756Z,4.60
2019-02-08T13:40:48.408Z,4.60
2019-02-08T13:43:19.052Z,4.60
2019-02-08T13:45:50.656Z,4.60
2019-02-08T13:48:21.390Z,4.60
2019-02-08T13:50:51.979Z,4.70
2019-02-08T13:53:22.489Z,4.70
2019-02-08T13:55:53.094Z,4.60
2019-02-08T13:58:24.080Z,4.60
2019-02-08T14:00:54.686Z,4.60
2019-02-08T14:03:25.318Z,4.60
2019-02-08T14:05:56.248Z,4.60
2019-02-08T14:08:26.881Z,4.60
2019-02-08T14:10:57.481Z,4.60
2019-02-08T14:13:28.101Z,4.60
2019-02-08T14:15:58.640Z,4.60
2019-02-08T14:18:29.547Z,4.60
2019-02-08T14:21:00.056Z,4.50
2019-02-08T14:23:31.159Z,4.50
2019-02-08T14:26:01.668Z,4.50
2019-02-08T14:28:32.261Z,4.50
2019-02-08T14:31:02.741Z,4.40
2019-02-08T14:33:33.256Z,4.40
2019-02-08T14:36:03.877Z,4.40
2019-02-08T14:38:35.599Z,4.40
2019-02-08T14:41:06.367Z,4.40
2019-02-08T14:43:36.981Z,4.40
2019-02-08T14:46:07.545Z,4.40
2019-02-08T14:48:38.153Z,4.40
2019-02-08T14:51:08.738Z,4.50
2019-02-08T14:53:39.300Z,4.40
2019-02-08T14:56:09.809Z,4.40
2019-02-08T14:58:41.388Z,4.40
2019-02-08T15:01:11.936Z,4.40
2019-02-08T15:03:42.460Z,4.40
2019-02-08T15:06:14.173Z,4.40
2019-02-08T15:08:45.005Z,4.40
2019-02-08T15:11:15.522Z,4.40
2019-02-08T15:13:46.100Z,4.40
2019-02-08T15:16:17.047Z,4.40
2019-02-08T15:18:48.105Z,4.40
2019-02-08T15:21:18.600Z,4.40
2019-02-08T15:23:49.144Z,4.40
2019-02-08T15:26:19.676Z,4.40
2019-02-08T15:28:50.254Z,4.40
2019-02-08T15:31:20.853Z,4.40
2019-02-08T15:33:51.474Z,4.40
2019-02-08T15:36:22.313Z,4.30
2019-02-08T15:38:52.937Z,4.30
2019-02-08T15:41:23.472Z,4.30
2019-02-08T15:43:54.147Z,4.30
2019-02-08T15:46:24.755Z,4.30
2019-02-08T15:48:55.616Z,4.40
2019-02-08T15:51:26.687Z,4.40
2019-02-08T15:53:57.704Z,4.30
2019-02-08T15:56:28.292Z,4.30
2019-02-08T15:58:59.576Z,4.30
2019-02-08T16:01:30.684Z,4.30
2019-02-08T16:04:01.649Z,4.30
2019-02-08T16:06:32.635Z,4.30
2019-02-08T16:09:05.009Z,4.30
2019-02-08T16:11:36.205Z,4.40
2019-02-08T16:14:08.170Z,4.40
2019-02-08T16:16:38.705Z,4.40
2019-02-08T16:19:09.887Z,4.40
2019-02-08T16:21:40.424Z,4.40
2019-02-08T16:24:11.124Z,4.40
2019-02-08T16:26:41.680Z,4.40
2019-02-08T16:29:12.285Z,4.40
2019-02-08T16:31:42.920Z,4.40
2019-02-08T16:34:13.592Z,4.40
2019-02-08T16:36:44.178Z,4.40
2019-02-08T16:39:14.914Z,4.30
2019-02-08T16:41:45.544Z,4.40
2019-02-08T16:44:16.384Z,4.40
2019-02-08T16:46:47.145Z,4.40
2019-02-08T16:49:17.841Z,4.40
2019-02-08T16:51:48.770Z,4.30
2019-02-08T16:54:19.624Z,4.30
2019-02-08T16:56:50.709Z,4.30
2019-02-08T16:59:21.599Z,4.30
2019-02-08T17:01:52.466Z,4.30
2019-02-08T17:04:23.669Z,4.30
2019-02-08T17:06:54.637Z,4.30
2019-02-08T17:09:25.481Z,4.40
2019-02-08T17:11:58.641Z,4.40
2019-02-08T17:14:30.023Z,4.40
2019-02-08T17:17:01.139Z,4.40
2019-02-08T17:19:31.900Z,4.40
2019-02-08T17:22:02.709Z,4.30
2019-02-08T17:24:33.640Z,4.30
2019-02-08T17:27:04.489Z,4.30
2019-02-08T17:29:35.723Z,4.30
2019-02-08T17:32:06.671Z,4.30
2019-02-08T17:34:37.444Z,4.40
2019-02-08T17:37:09.300Z,4.40
2019-02-08T17:39:40.140Z,4.40
2019-02-08T17:42:11.285Z,4.30
2019-02-08T17:44:42.303Z,4.30
2019-02-08T17:47:13.372Z,4.30
2019-02-08T17:49:44.614Z,4.40
2019-02-08T17:52:15.452Z,4.30
2019-02-08T17:54:46.538Z,4.30
2019-02-08T17:57:17.404Z,4.30
2019-02-08T17:59:49.787Z,4.30
2019-02-08T18:02:21.851Z,4.30
2019-02-08T18:04:52.880Z,4.30
2019-02-08T18:07:23.691Z,4.20
2019-02-08T18:09:54.613Z,4.30
2019-02-08T18:12:32.283Z,4.20
2019-02-08T18:14:57.884Z,4.20
2019-02-08T18:17:29.613Z,4.30
2019-02-08T18:20:00.374Z,4.30
2019-02-08T18:22:31.114Z,4.20
2019-02-08T18:25:02.002Z,4.30
2019-02-08T18:27:33.553Z,4.30
2019-02-08T18:30:05.125Z,4.30
2019-02-08T18:32:36.006Z,4.30
2019-02-08T18:35:08.029Z,4.30
2019-02-08T18:37:39.252Z,4.40
2019-02-08T18:40:13.418Z,4.40
2019-02-08T18:42:44.312Z,4.30
2019-02-08T18:45:22.019Z,4.30
2019-02-08T18:47:54.323Z,4.30
2019-02-08T18:50:30.294Z,4.30
2019-02-08T18:53:01.199Z,4.30
2019-02-08T18:55:31.977Z,4.30
2019-02-08T18:58:02.943Z,4.30
2019-02-08T19:00:40.143Z,4.30
2019-02-08T19:03:09.484Z,4.30
2019-02-08T19:05:40.626Z,4.30
2019-02-08T19:08:11.553Z,4.30
2019-02-08T19:10:42.581Z,4.40
2019-02-08T19:13:13.321Z,4.40
2019-02-08T19:15:44.080Z,4.40
2019-02-08T19:18:14.934Z,4.40
2019-02-08T19:20:46.287Z,4.40
2019-02-08T19:23:17.142Z,4.40
2019-02-08T19:25:48.345Z,4.40
2019-02-08T19:28:26.096Z,4.40
2019-02-08T19:30:51.648Z,4.40
2019-02-08T19:33:22.433Z,4.40
2019-02-08T19:35:53.143Z,4.30
2019-02-08T19:38:23.886Z,4.30
2019-02-08T19:40:54.757Z,4.30
2019-02-08T19:43:25.477Z,4.30
2019-02-08T19:45:56.285Z,4.30
2019-02-08T19:48:27.380Z,4.40
2019-02-08T19:50:58.332Z,4.30
2019-02-08T19:53:28.927Z,4.30
2019-02-08T19:55:59.598Z,4.30
2019-02-08T19:58:34.516Z,4.30
2019-02-08T20:01:02.676Z,4.30
2019-02-08T20:03:33.397Z,4.30
2019-02-08T20:06:04.451Z,4.40
2019-02-08T20:08:35.182Z,4.30
2019-02-08T20:11:05.920Z,4.40
2019-02-08T20:13:37.059Z,4.30
2019-02-08T20:16:07.891Z,4.40
2019-02-08T20:18:39.541Z,4.40
2019-02-08T20:21:10.270Z,4.40
2019-02-08T20:23:41.346Z,4.40
2019-02-08T20:26:11.978Z,4.40
2019-02-08T20:28:42.796Z,4.40
2019-02-08T20:31:13.671Z,4.40
2019-02-08T20:33:44.457Z,4.40
2019-02-08T20:36:15.216Z,4.40
2019-02-08T20:38:45.930Z,4.40
2019-02-08T20:41:16.764Z,4.40
2019-02-08T20:43:49.219Z,4.40
2019-02-08T20:46:19.859Z,4.40
2019-02-08T20:48:50.577Z,4.30
2019-02-08T20:51:21.266Z,4.30
2019-02-08T20:53:52.161Z,4.30
2019-02-08T20:56:23.499Z,4.30
2019-02-08T20:58:54.211Z,4.30
2019-02-08T21:01:25.393Z,4.30
2019-02-08T21:03:56.007Z,4.40
2019-02-08T21:06:26.716Z,4.30
2019-02-08T21:08:57.344Z,4.40
2019-02-08T21:11:28.061Z,4.30
2019-02-08T21:13:58.676Z,4.30
2019-02-08T21:16:29.328Z,4.30
2019-02-08T21:18:59.964Z,4.30
2019-02-08T21:21:30.662Z,4.20
2019-02-08T21:24:01.324Z,4.30
2019-02-08T21:26:32.203Z,4.30
2019-02-08T21:29:02.955Z,4.30
2019-02-08T21:31:33.728Z,4.30
2019-02-08T21:34:04.486Z,4.20
2019-02-08T21:36:38.955Z,4.30
2019-02-08T21:39:09.096Z,4.30
2019-02-08T21:41:41.029Z,4.40
2019-02-08T21:44:11.700Z,4.30
2019-02-08T21:46:42.618Z,4.30
2019-02-08T21:49:13.264Z,4.30
2019-02-08T21:51:45.111Z,4.40
2019-02-08T21:54:15.866Z,4.30
2019-02-08T21:56:46.589Z,4.30
2019-02-08T21:59:17.327Z,4.40
2019-02-08T22:01:48.066Z,4.30
2019-02-08T22:04:18.906Z,4.30
2019-02-08T22:06:49.870Z,4.30
2019-02-08T22:09:20.557Z,4.30
2019-02-08T22:11:51.318Z,4.30
2019-02-08T22:14:22.017Z,4.20
2019-02-08T22:16:52.788Z,4.20
2019-02-08T22:19:23.614Z,4.20
2019-02-08T22:21:54.377Z,4.20
2019-02-08T22:24:25.433Z,4.10
2019-02-08T22:26:56.339Z,4.10
2019-02-08T22:29:27.028Z,4.20
2019-02-08T22:31:57.681Z,4.20
2019-02-08T22:34:28.419Z,4.10
2019-02-08T22:36:59.116Z,4.10
2019-02-08T22:39:29.759Z,4.10
2019-02-08T22:42:00.488Z,4.20
2019-02-08T22:44:31.178Z,4.10
2019-02-08T22:47:01.809Z,4.10
2019-02-08T22:49:32.749Z,4.10
2019-02-08T22:52:03.528Z,4.10
2019-02-08T22:54:34.105Z,4.20
2019-02-08T22:57:04.857Z,4.20
2019-02-08T22:59:35.496Z,4.10
2019-02-08T23:02:07.946Z,4.10
2019-02-08T23:04:38.609Z,4.10
2019-02-08T23:07:09.337Z,4.10
2019-02-08T23:09:40.253Z,4.10
2019-02-08T23:12:10.922Z,4.00
2019-02-08T23:14:41.747Z,4.10
2019-02-08T23:17:12.925Z,4.10
2019-02-08T23:19:43.703Z,4.10
2019-02-08T23:22:14.304Z,4.20
2019-02-08T23:24:44.920Z,4.10
2019-02-08T23:27:15.708Z,4.10
2019-02-08T23:29:46.473Z,4.10
2019-02-08T23:32:17.192Z,4.10
2019-02-08T23:34:47.822Z,4.10
2019-02-08T23:37:25.871Z,4.10
2019-02-08T23:39:51.713Z,4.00
2019-02-08T23:42:24.552Z,4.00
2019-02-08T23:44:55.294Z,4.00
2019-02-08T23:47:26.729Z,4.00
2019-02-08T23:49:57.499Z,4.00
2019-02-08T23:52:28.142Z,4.10
2019-02-08T23:54:58.808Z,4.10
2019-02-08T23:57:29.608Z,4.00
